createdAt,value
2023-09-20T00:02:18.423Z,82.50
2023-09-20T00:04:49.264Z,82.60
2023-09-20T00:07:17.594Z,82.60
2023-09-20T00:09:44.887Z,82.60
2023-09-20T00:12:12.255Z,82.70
2023-09-20T00:14:39.630Z,82.80
2023-09-20T00:17:07.898Z,82.80
2023-09-20T00:19:36.144Z,82.90
2023-09-20T00:22:06.445Z,82.90
2023-09-20T00:24:34.938Z,82.80
2023-09-20T00:27:02.134Z,82.70
2023-09-20T00:29:32.472Z,82.60
2023-09-20T00:31:59.832Z,82.70
2023-09-20T00:34:27.845Z,82.90
2023-09-20T00:36:58.284Z,83.00
2023-09-20T00:39:25.621Z,82.80
2023-09-20T00:41:54.275Z,82.70
2023-09-20T00:44:22.070Z,82.60
2023-09-20T00:46:49.211Z,82.60
2023-09-20T00:49:19.374Z,82.60
2023-09-20T00:51:48.528Z,82.40
2023-09-20T00:54:19.679Z,82.30
2023-09-20T00:56:46.951Z,82.30
2023-09-20T00:59:14.958Z,82.60
2023-09-20T01:01:42.780Z,82.50
2023-09-20T01:04:10.596Z,82.40
2023-09-20T01:06:42.624Z,82.70
2023-09-20T01:09:11.111Z,82.70
2023-09-20T01:11:38.737Z,82.80
2023-09-20T01:14:06.268Z,82.70
2023-09-20T01:16:34.725Z,82.80
2023-09-20T01:19:06.487Z,83.00
2023-09-20T01:21:43.251Z,83.00
2023-09-20T01:24:11.702Z,83.20
2023-09-20T01:26:40.882Z,83.30
2023-09-20T01:29:08.081Z,83.00
2023-09-20T01:31:37.992Z,83.00
2023-09-20T01:34:07.989Z,83.10
2023-09-20T01:36:38.052Z,83.00
2023-09-20T01:39:09.775Z,83.10
2023-09-20T01:41:37.672Z,83.30
2023-09-20T01:44:06.098Z,83.30
2023-09-20T01:46:36.214Z,83.10
2023-09-20T01:49:13.524Z,83.10
2023-09-20T01:51:42.045Z,83.10
2023-09-20T01:54:09.942Z,83.20
2023-09-20T01:56:37.300Z,82.80
2023-09-20T01:59:07.239Z,82.80
2023-09-20T02:01:35.597Z,82.60
2023-09-20T02:04:06.558Z,82.90
2023-09-20T02:06:34.201Z,83.20
2023-09-20T02:09:01.402Z,83.50
2023-09-20T02:11:29.884Z,83.80
2023-09-20T02:13:57.125Z,83.80
2023-09-20T02:16:24.452Z,83.90
2023-09-20T02:18:54.701Z,83.80
2023-09-20T02:21:22.568Z,83.50
2023-09-20T02:23:53.549Z,84.00
2023-09-20T02:26:20.721Z,84.20
2023-09-20T02:28:48.105Z,84.50
2023-09-20T02:31:19.475Z,84.50
2023-09-20T02:33:46.726Z,84.50
2023-09-20T02:36:13.982Z,84.50
2023-09-20T02:38:50.380Z,84.50
2023-09-20T02:41:17.610Z,84.40
2023-09-20T02:43:53.580Z,84.60
2023-09-20T02:46:22.064Z,84.70
2023-09-20T02:48:52.247Z,84.70
2023-09-20T02:51:19.570Z,84.70
2023-09-20T02:53:46.851Z,84.80
2023-09-20T02:56:14.094Z,84.80
2023-09-20T02:58:41.593Z,84.70
2023-09-20T03:01:10.469Z,84.50
2023-09-20T03:03:38.114Z,84.50
2023-09-20T03:06:10.482Z,84.70
2023-09-20T03:08:43.311Z,85.10
2023-09-20T03:11:21.228Z,85.20
2023-09-20T03:13:49.568Z,85.20
2023-09-20T03:16:20.106Z,85.40
2023-09-20T03:18:54.967Z,85.60
2023-09-20T03:21:23.253Z,85.40
2023-09-20T03:23:50.542Z,85.50
2023-09-20T03:26:18.092Z,85.70
2023-09-20T03:28:50.149Z,85.60
2023-09-20T03:31:22.241Z,85.70
2023-09-20T03:33:50.549Z,85.70
2023-09-20T03:36:22.205Z,85.70
2023-09-20T03:38:51.066Z,85.60
2023-09-20T03:41:18.686Z,85.30
2023-09-20T03:43:47.373Z,85.20
2023-09-20T03:46:15.901Z,85.10
2023-09-20T03:48:48.031Z,85.10
2023-09-20T03:51:18.444Z,85.10
2023-09-20T03:53:47.243Z,85.20
2023-09-20T03:56:20.265Z,85.30
2023-09-20T03:58:47.637Z,85.50
2023-09-20T04:01:15.284Z,85.60
2023-09-20T04:03:44.722Z,85.60
2023-09-20T04:06:12.217Z,85.70
2023-09-20T04:08:40.282Z,85.70
2023-09-20T04:11:07.796Z,85.90
2023-09-20T04:13:34.936Z,85.80
2023-09-20T04:16:07.408Z,85.80
2023-09-20T04:18:34.846Z,85.90
2023-09-20T04:21:02.724Z,85.90
2023-09-20T04:23:32.992Z,86.10
2023-09-20T04:26:00.119Z,86.20
2023-09-20T04:28:27.208Z,86.00
2023-09-20T04:30:54.765Z,86.10
2023-09-20T04:33:22.281Z,86.00
2023-09-20T04:35:49.884Z,85.90
2023-09-20T04:38:22.325Z,85.70
2023-09-20T04:40:49.644Z,85.60
2023-09-20T04:43:16.714Z,85.60
2023-09-20T04:45:44.561Z,85.60
2023-09-20T04:48:11.739Z,85.60
2023-09-20T04:50:39.112Z,85.50
2023-09-20T04:53:06.337Z,85.30
2023-09-20T04:55:35.832Z,85.30
2023-09-20T04:58:05.654Z,85.50
2023-09-20T05:00:39.202Z,85.50
2023-09-20T05:03:13.117Z,85.50
2023-09-20T05:05:40.790Z,85.50
2023-09-20T05:08:09.853Z,85.50
2023-09-20T05:10:37.674Z,85.50
2023-09-20T05:13:06.935Z,85.40
2023-09-20T05:15:34.418Z,85.30
2023-09-20T05:18:03.023Z,85.30
2023-09-20T05:20:50.531Z,85.40
2023-09-20T05:23:18.066Z,85.20
2023-09-20T05:25:45.356Z,85.10
2023-09-20T05:28:16.483Z,85.10
2023-09-20T05:30:47.357Z,84.90
2023-09-20T05:33:16.316Z,84.90
2023-09-20T05:35:44.755Z,84.80
2023-09-20T05:38:26.822Z,84.70
2023-09-20T05:40:57.213Z,84.90
2023-09-20T05:43:25.082Z,84.90
2023-09-20T05:45:56.635Z,85.00
2023-09-20T05:48:27.519Z,85.00
2023-09-20T05:50:55.531Z,85.00
2023-09-20T05:53:23.071Z,85.10
2023-09-20T05:55:50.755Z,85.10
2023-09-20T05:58:19.687Z,85.10
2023-09-20T06:00:46.963Z,84.90
2023-09-20T06:03:14.507Z,84.80
2023-09-20T06:05:42.320Z,84.50
2023-09-20T06:08:10.366Z,84.30
2023-09-20T06:10:45.523Z,84.20
2023-09-20T06:13:12.718Z,84.20
2023-09-20T06:15:40.551Z,84.20
2023-09-20T06:18:12.796Z,83.60
2023-09-20T06:20:47.638Z,83.20
2023-09-20T06:23:16.217Z,83.30
2023-09-20T06:25:45.790Z,82.90
2023-09-20T06:28:17.616Z,83.00
2023-09-20T06:30:44.920Z,82.50
2023-09-20T06:33:12.616Z,82.10
2023-09-20T06:35:44.905Z,81.90
2023-09-20T06:38:12.232Z,81.70
2023-09-20T06:40:42.240Z,81.40
2023-09-20T06:43:09.837Z,81.00
2023-09-20T06:45:37.989Z,80.10
2023-09-20T06:48:07.152Z,80.90
2023-09-20T06:50:34.420Z,79.80
2023-09-20T06:53:01.721Z,79.50
2023-09-20T06:55:31.509Z,79.50
2023-09-20T06:58:17.381Z,79.50
2023-09-20T07:00:47.426Z,79.30
2023-09-20T07:03:14.783Z,78.30
2023-09-20T07:05:42.547Z,79.00
2023-09-20T07:08:12.472Z,78.50
2023-09-20T07:10:43.344Z,78.60
2023-09-20T07:13:11.178Z,78.50
2023-09-20T07:15:38.794Z,78.40
2023-09-20T07:18:13.997Z,77.90
2023-09-20T07:20:43.649Z,77.50
2023-09-20T07:23:12.264Z,77.30
2023-09-20T07:25:40.501Z,76.50
2023-09-20T07:28:08.697Z,77.00
2023-09-20T07:30:46.751Z,76.50
2023-09-20T07:33:21.200Z,76.30
2023-09-20T07:36:00.511Z,76.10
2023-09-20T07:38:30.136Z,75.90
2023-09-20T07:41:11.930Z,75.50
2023-09-20T07:43:39.773Z,74.90
2023-09-20T07:46:07.542Z,74.20
2023-09-20T07:48:36.052Z,73.60
2023-09-20T07:51:05.573Z,74.30
2023-09-20T07:53:33.126Z,74.00
2023-09-20T07:56:05.472Z,73.70
2023-09-20T07:58:42.302Z,72.70
2023-09-20T08:01:30.984Z,73.80
2023-09-20T08:04:12.986Z,73.40
2023-09-20T08:06:42.939Z,72.00
2023-09-20T08:09:17.008Z,72.00
2023-09-20T08:18:12.976Z,71.10
2023-09-20T08:20:46.730Z,71.30
2023-09-20T08:28:13.445Z,69.20
2023-09-20T08:31:11.242Z,68.90
2023-09-20T08:43:42.841Z,67.60
2023-09-20T08:46:33.811Z,69.30
2023-09-20T08:53:42.776Z,60.80
2023-09-20T08:56:51.150Z,61.10
2023-09-20T09:16:08.003Z,60.80
2023-09-20T09:18:44.597Z,57.90
2023-09-20T09:21:20.914Z,57.50
2023-09-20T09:24:00.214Z,57.90
2023-09-20T09:26:40.313Z,57.30
2023-09-20T09:29:36.751Z,58.50
2023-09-20T09:32:19.735Z,58.50
2023-09-20T09:35:10.141Z,57.50
2023-09-20T09:37:58.625Z,57.00
2023-09-20T09:52:06.486Z,58.40
2023-09-20T09:54:40.428Z,56.10
2023-09-20T10:08:16.445Z,56.90
2023-09-20T10:10:58.911Z,56.80
2023-09-20T10:13:42.340Z,56.30
2023-09-20T10:27:16.714Z,56.60
2023-09-20T10:34:57.944Z,54.50
2023-09-20T10:41:03.344Z,58.00
2023-09-20T10:49:58.518Z,54.60
2023-09-20T10:53:13.700Z,55.10
2023-09-20T10:56:01.134Z,54.60
2023-09-20T11:05:48.587Z,52.20
2023-09-20T11:08:27.188Z,53.70
2023-09-20T11:11:11.901Z,53.20
2023-09-20T11:13:48.959Z,52.00
2023-09-20T11:16:24.672Z,54.10
2023-09-20T11:19:11.622Z,51.80
2023-09-20T11:21:47.367Z,52.20
2023-09-20T11:24:19.242Z,52.90
2023-09-20T11:26:57.622Z,52.30
2023-09-20T11:29:40.478Z,51.80
2023-09-20T11:32:25.969Z,52.70
2023-09-20T11:35:04.838Z,52.30
2023-09-20T11:44:26.933Z,51.20
2023-09-20T11:47:13.217Z,51.30
2023-09-20T11:49:54.273Z,52.00
2023-09-20T11:52:24.421Z,53.80
2023-09-20T11:54:59.688Z,50.40
2023-09-20T11:57:27.846Z,49.60
2023-09-20T11:59:59.635Z,49.90
2023-09-20T12:02:32.366Z,50.20
2023-09-20T12:05:02.140Z,50.90
2023-09-20T12:07:36.572Z,51.00
2023-09-20T12:10:10.985Z,50.90
2023-09-20T12:12:42.737Z,50.50
2023-09-20T12:15:13.574Z,51.30
2023-09-20T12:17:41.451Z,49.40
2023-09-20T12:20:14.744Z,49.90
2023-09-20T12:22:42.527Z,50.40
2023-09-20T12:25:14.009Z,49.90
2023-09-20T12:27:47.454Z,49.00
2023-09-20T12:30:15.321Z,49.10
2023-09-20T12:32:46.624Z,48.90
2023-09-20T12:35:17.435Z,48.30
2023-09-20T12:40:53.539Z,48.20
2023-09-20T12:43:23.631Z,47.70
2023-09-20T12:48:42.360Z,47.80
2023-09-20T12:51:14.974Z,49.30
2023-09-20T12:53:50.743Z,49.50
2023-09-20T12:56:18.326Z,48.70
2023-09-20T15:22:43.007Z,49.10
2023-09-20T15:25:19.693Z,49.10
2023-09-20T15:27:52.008Z,48.80
2023-09-20T15:30:21.794Z,49.40
2023-09-20T15:32:49.358Z,49.00
2023-09-20T15:35:17.232Z,48.90
2023-09-20T15:37:47.194Z,49.00
2023-09-20T15:40:18.196Z,50.00
2023-09-20T15:42:49.749Z,51.30
2023-09-20T15:45:21.549Z,52.20
2023-09-20T15:57:56.123Z,53.30
2023-09-20T16:00:29.358Z,54.10
2023-09-20T16:02:57.537Z,55.80
2023-09-20T16:05:24.904Z,56.80
2023-09-20T16:07:54.560Z,57.50
2023-09-20T16:10:24.087Z,57.30
2023-09-20T16:12:51.266Z,58.20
2023-09-20T16:15:23.257Z,58.60
2023-09-20T16:17:55.798Z,57.90
2023-09-20T16:20:25.101Z,56.60
2023-09-20T16:22:52.342Z,58.70
2023-09-20T16:25:19.492Z,58.80
2023-09-20T16:27:47.066Z,59.20
2023-09-20T16:30:16.060Z,59.80
2023-09-20T16:32:45.714Z,59.20
2023-09-20T16:35:15.651Z,59.20
2023-09-20T16:37:44.266Z,59.10
2023-09-20T16:40:13.376Z,59.60
2023-09-20T16:42:40.697Z,60.30
2023-09-20T16:45:09.977Z,61.10
2023-09-20T16:47:41.451Z,61.10
2023-09-20T16:50:09.423Z,60.90
2023-09-20T16:52:38.353Z,61.10
2023-09-20T16:55:07.194Z,61.90
2023-09-20T16:57:34.700Z,62.50
2023-09-20T17:00:02.309Z,62.70
2023-09-20T17:02:30.286Z,62.90
2023-09-20T17:04:58.156Z,63.70
2023-09-20T17:07:26.797Z,63.80
2023-09-20T17:09:54.535Z,64.00
2023-09-20T17:12:22.529Z,63.70
2023-09-20T17:14:50.604Z,63.20
2023-09-20T17:17:19.126Z,63.10
2023-09-20T17:22:33.009Z,63.70
2023-09-20T17:25:03.057Z,64.10
2023-09-20T17:27:31.214Z,64.10
2023-09-20T17:33:46.070Z,64.30
2023-09-20T17:44:21.353Z,65.10
2023-09-20T17:47:14.856Z,65.20
2023-09-20T17:57:52.453Z,65.30
2023-09-20T18:00:25.923Z,65.90
2023-09-20T18:02:59.211Z,65.80
2023-09-20T18:05:26.851Z,66.20
2023-09-20T18:07:59.515Z,66.30
2023-09-20T18:10:27.442Z,66.40
2023-09-20T18:12:57.182Z,66.70
2023-09-20T18:15:24.484Z,66.70
2023-09-20T18:17:51.763Z,66.80
2023-09-20T18:20:19.211Z,66.90
2023-09-20T18:22:46.289Z,67.10
2023-09-20T18:25:16.400Z,67.50
2023-09-20T18:27:43.772Z,67.50
2023-09-20T18:30:12.460Z,67.30
2023-09-20T18:32:39.927Z,67.50
2023-09-20T18:35:07.547Z,67.90
2023-09-20T18:37:34.932Z,68.20
2023-09-20T18:40:02.290Z,68.50
2023-09-20T18:42:33.910Z,68.70
2023-09-20T18:45:03.982Z,68.90
2023-09-20T18:47:41.748Z,69.30
2023-09-20T18:50:20.814Z,69.40
2023-09-20T18:52:48.517Z,69.40
2023-09-20T18:55:17.510Z,69.60
2023-09-20T18:57:52.211Z,69.80
2023-09-20T19:00:21.518Z,70.10
2023-09-20T19:02:58.169Z,70.10
2023-09-20T19:05:26.245Z,70.30
2023-09-20T19:07:53.713Z,70.60
2023-09-20T19:10:21.593Z,70.90
2023-09-20T19:12:50.200Z,71.00
2023-09-20T19:15:17.472Z,71.40
2023-09-20T19:17:45.536Z,71.70
2023-09-20T19:20:19.344Z,72.00
2023-09-20T19:22:48.102Z,72.30
2023-09-20T19:25:18.529Z,72.10
2023-09-20T19:27:48.907Z,72.30
2023-09-20T19:30:20.322Z,72.50
2023-09-20T19:32:48.257Z,72.60
2023-09-20T19:39:19.645Z,72.60
2023-09-20T19:41:47.654Z,72.70
2023-09-20T19:44:18.325Z,73.00
2023-09-20T19:46:50.437Z,73.10
2023-09-20T19:49:17.658Z,72.80
2023-09-20T19:51:48.312Z,72.40
2023-09-20T19:54:21.471Z,72.30
2023-09-20T19:56:49.574Z,72.20
2023-09-20T19:59:17.177Z,72.20
2023-09-20T20:01:46.462Z,72.20
2023-09-20T20:04:15.197Z,72.20
2023-09-20T20:06:42.719Z,72.30
2023-09-20T20:09:19.386Z,72.40
2023-09-20T20:12:00.346Z,72.50
2023-09-20T20:14:32.890Z,72.60
2023-09-20T20:17:11.252Z,72.80
2023-09-20T20:19:38.809Z,73.00
2023-09-20T20:22:06.248Z,73.10
2023-09-20T20:24:51.629Z,73.10
2023-09-20T20:27:19.030Z,73.40
2023-09-20T20:30:10.122Z,73.60
2023-09-20T20:32:37.719Z,73.60
2023-09-20T20:35:18.464Z,73.70
2023-09-20T20:37:48.937Z,73.80
2023-09-20T20:40:34.748Z,74.10
2023-09-20T20:43:03.979Z,74.20
2023-09-20T20:45:35.304Z,74.30
2023-09-20T20:50:38.242Z,74.70
2023-09-20T20:53:15.924Z,74.70
2023-09-20T20:55:45.006Z,74.80
2023-09-20T20:58:14.498Z,74.80
2023-09-20T21:00:52.402Z,74.90
2023-09-20T21:03:21.249Z,75.00
2023-09-20T21:06:13.820Z,75.10
2023-09-20T21:08:44.537Z,75.20
2023-09-20T21:11:12.168Z,75.00
2023-09-20T21:13:42.355Z,74.80
2023-09-20T21:16:13.347Z,74.60
2023-09-20T21:18:43.627Z,74.70
2023-09-20T21:21:14.117Z,74.60
2023-09-20T21:23:41.594Z,74.50
2023-09-20T21:26:11.632Z,74.50
2023-09-20T21:28:39.693Z,74.30
2023-09-20T21:31:15.925Z,74.40
2023-09-20T21:33:45.263Z,74.20
2023-09-20T21:36:13.023Z,74.30
2023-09-20T21:38:40.670Z,74.40
2023-09-20T21:41:08.322Z,74.40
2023-09-20T21:43:41.581Z,74.30
2023-09-20T21:46:10.697Z,74.30
2023-09-20T21:48:38.014Z,74.30
2023-09-20T21:51:08.394Z,74.30
2023-09-20T21:53:38.096Z,74.30
2023-09-20T21:56:05.255Z,74.20
2023-09-20T21:58:32.554Z,74.20
2023-09-20T22:01:01.234Z,74.40
2023-09-20T22:03:29.878Z,74.30
2023-09-20T22:05:59.719Z,74.10
2023-09-20T22:08:27.537Z,73.90
2023-09-20T22:10:58.364Z,73.90
2023-09-20T22:13:25.588Z,73.90
2023-09-20T22:15:52.883Z,73.70
2023-09-20T22:18:26.373Z,73.70
2023-09-20T22:21:01.894Z,73.60
2023-09-20T22:23:29.921Z,73.60
2023-09-20T22:26:01.726Z,73.40
2023-09-20T22:28:29.856Z,73.10
2023-09-20T22:31:01.668Z,73.20
2023-09-20T22:33:31.712Z,73.00
2023-09-20T22:36:12.098Z,73.00
2023-09-20T22:38:42.863Z,73.00
2023-09-20T22:41:10.693Z,72.90
2023-09-20T22:43:39.265Z,72.90
2023-09-20T22:46:08.391Z,72.70
2023-09-20T22:48:36.061Z,72.70
2023-09-20T22:51:03.641Z,72.40
2023-09-20T22:53:30.974Z,72.30
2023-09-20T22:56:08.309Z,72.30
2023-09-20T22:58:35.721Z,71.90
2023-09-20T23:01:06.881Z,71.80
2023-09-20T23:03:35.035Z,71.60
2023-09-20T23:06:22.768Z,71.40
2023-09-20T23:08:50.510Z,71.30
2023-09-20T23:11:22.431Z,71.00
2023-09-20T23:13:51.325Z,71.00
2023-09-20T23:16:23.531Z,70.80
2023-09-20T23:18:50.939Z,70.60
2023-09-20T23:21:18.608Z,70.30
2023-09-20T23:23:50.166Z,70.30
2023-09-20T23:26:18.606Z,70.10
2023-09-20T23:28:46.203Z,70.10
2023-09-20T23:31:17.624Z,69.90
2023-09-20T23:33:49.144Z,69.80
2023-09-20T23:36:16.909Z,69.60
2023-09-20T23:38:45.402Z,69.50
2023-09-20T23:41:16.730Z,69.20
2023-09-20T23:43:57.408Z,68.90
2023-09-20T23:46:27.930Z,68.80
2023-09-20T23:48:55.604Z,68.90
2023-09-20T23:51:23.908Z,68.80
2023-09-20T23:53:53.911Z,68.70
2023-09-20T23:56:23.815Z,68.50
2023-09-20T23:58:52.528Z,68.40
